createdAt,value
2018-05-08T00:01:09.864Z,6.75
2018-05-08T00:07:04.855Z,7.12
2018-05-08T00:12:59.848Z,7.13
2018-05-08T00:18:54.847Z,7.42
2018-05-08T00:24:49.829Z,6.74
2018-05-08T00:30:44.836Z,6.59
2018-05-08T00:36:39.869Z,6.75
2018-05-08T00:42:34.900Z,7.19
2018-05-08T00:48:29.861Z,7.17
2018-05-08T00:54:24.843Z,6.73
2018-05-08T01:00:19.895Z,7.72
2018-05-08T01:06:14.931Z,6.69
2018-05-08T01:12:09.901Z,6.7
2018-05-08T01:18:04.933Z,6.35
2018-05-08T01:23:59.861Z,6.18
2018-05-08T01:29:54.908Z,6
2018-05-08T01:35:49.887Z,6.57
2018-05-08T01:41:44.904Z,6.43
2018-05-08T01:47:39.862Z,6.23
2018-05-08T01:53:34.927Z,6.56
2018-05-08T01:59:29.906Z,6.73
2018-05-08T02:05:24.876Z,6.52
2018-05-08T02:11:19.978Z,7.11
2018-05-08T02:17:14.887Z,7.08
2018-05-08T02:23:09.904Z,6.86
2018-05-08T02:29:04.936Z,7.17
2018-05-08T02:34:59.913Z,6.4
2018-05-08T02:40:54.906Z,6.41
2018-05-08T02:46:49.905Z,6.29
2018-05-08T02:52:44.902Z,6.94
2018-05-08T02:58:39.924Z,6.37
2018-05-08T03:04:34.933Z,6.61
2018-05-08T03:10:29.937Z,6.84
2018-05-08T03:16:24.913Z,7.16
2018-05-08T03:22:19.961Z,6.37
2018-05-08T03:28:14.888Z,7.4
2018-05-08T03:34:09.965Z,6.38
2018-05-08T03:40:04.922Z,7.21
2018-05-08T03:45:59.946Z,7.45
2018-05-08T03:51:54.927Z,6.83
2018-05-08T03:57:49.926Z,7.94
2018-05-08T04:03:44.993Z,6.95
2018-05-08T04:09:39.932Z,7.13
2018-05-08T04:15:34.963Z,7.75
2018-05-08T04:21:29.936Z,10.74
2018-05-08T04:27:24.972Z,9.55
2018-05-08T04:33:19.922Z,10.02
2018-05-08T04:39:14.907Z,10.05
2018-05-08T04:45:09.983Z,11.3
2018-05-08T04:51:04.968Z,12.67
2018-05-08T04:56:59.969Z,12.11
2018-05-08T05:02:54.935Z,16.54
2018-05-08T05:08:49.939Z,17.77
2018-05-08T05:14:44.921Z,19.16
2018-05-08T05:20:39.969Z,20.46
2018-05-08T05:26:34.925Z,21.22
2018-05-08T05:32:29.943Z,21.4
2018-05-08T05:38:24.940Z,23.93
2018-05-08T05:44:19.955Z,21.95
2018-05-08T05:50:14.975Z,22.42
2018-05-08T05:56:09.956Z,22.24
2018-05-08T06:02:04.965Z,22.65
2018-05-08T06:07:59.963Z,24.92
2018-05-08T06:13:54.997Z,22.42
2018-05-08T06:19:49.973Z,23.27
2018-05-08T06:25:44.978Z,23.99
2018-05-08T06:31:40.034Z,25.83
2018-05-08T06:37:34.966Z,22.59
2018-05-08T06:43:29.955Z,23.21
2018-05-08T06:49:24.970Z,22.37
2018-05-08T06:55:20.007Z,22.25
2018-05-08T07:01:15.164Z,23.83
2018-05-08T07:07:09.975Z,24.4
2018-05-08T07:13:04.969Z,23.57
2018-05-08T07:18:59.963Z,23.58
2018-05-08T07:24:54.970Z,22.27
2018-05-08T07:30:50.052Z,24.6
2018-05-08T07:36:45.044Z,22.91
2018-05-08T07:42:40.018Z,24.44
2018-05-08T07:48:34.985Z,24
2018-05-08T07:54:30.056Z,22.58
2018-05-08T08:00:25.055Z,22.4
2018-05-08T08:06:19.995Z,23.23
2018-05-08T08:12:15.050Z,22.52
2018-05-08T08:18:10.002Z,23.16
2018-05-08T08:24:04.981Z,22.86
2018-05-08T08:29:59.999Z,25.5
2018-05-08T08:35:55.009Z,24.17
2018-05-08T08:41:50.021Z,23.29
2018-05-08T08:47:45.221Z,30.12
2018-05-08T08:53:40.020Z,33.67
2018-05-08T08:59:35.011Z,40.38
2018-05-08T09:05:30.018Z,88.67
2018-05-08T09:11:25.168Z,69.58
2018-05-08T09:17:20.130Z,65.59
2018-05-08T09:23:15.005Z,59.27
2018-05-08T09:29:10.022Z,50.02
2018-05-08T09:35:06.134Z,46.98
2018-05-08T09:41:00.099Z,47.63
2018-05-08T09:46:55.053Z,51.44
2018-05-08T09:52:50.080Z,52.32
2018-05-08T09:58:45.051Z,52.04
2018-05-08T10:04:40.040Z,54.65
2018-05-08T10:10:35.041Z,58.65
2018-05-08T10:16:30.049Z,40.85
2018-05-08T10:22:25.063Z,41.71
2018-05-08T10:28:20.047Z,36.17
2018-05-08T10:34:15.036Z,32.81
2018-05-08T10:40:10.183Z,32.71
2018-05-08T10:46:05.112Z,26.39
2018-05-08T10:52:00.070Z,20.08
2018-05-08T10:57:55.089Z,20.85
2018-05-08T11:03:50.037Z,26.46
2018-05-08T11:09:45.082Z,29.09
2018-05-08T11:15:40.037Z,44.14
2018-05-08T11:21:35.101Z,33.24
2018-05-08T11:27:30.149Z,34.86
2018-05-08T11:33:25.062Z,35.88
2018-05-08T11:39:20.198Z,29.53
2018-05-08T11:45:15.102Z,43.27
2018-05-08T11:51:10.050Z,42.83
2018-05-08T11:57:05.129Z,37.11
2018-05-08T12:03:00.120Z,29.42
2018-05-08T12:08:55.061Z,24.57
2018-05-08T12:14:50.194Z,28.6
2018-05-08T12:20:45.082Z,24.28
2018-05-08T12:26:40.109Z,25.07
2018-05-08T12:32:35.098Z,23.23
2018-05-08T12:38:30.103Z,30.23
2018-05-08T12:44:25.213Z,29.03
2018-05-08T12:50:20.185Z,48.77
2018-05-08T12:56:15.505Z,46.77
2018-05-08T13:02:10.258Z,45.01
2018-05-08T13:08:05.169Z,25.99
2018-05-08T13:14:00.261Z,15.42
2018-05-08T13:19:55.153Z,13.14
2018-05-08T13:25:50.178Z,13.63
2018-05-08T13:31:45.169Z,10.23
2018-05-08T13:37:40.121Z,23.19
2018-05-08T13:43:35.148Z,54.14
2018-05-08T13:49:30.100Z,42.33
2018-05-08T13:55:25.142Z,54.44
2018-05-08T14:01:20.146Z,57.31
2018-05-08T14:07:15.146Z,70.79
2018-05-08T14:13:10.183Z,53.98
2018-05-08T14:19:05.169Z,47.91
2018-05-08T14:25:00.272Z,35.15
2018-05-08T14:30:55.133Z,47.57
2018-05-08T14:36:50.186Z,41.58
2018-05-08T14:42:45.138Z,35.37
2018-05-08T14:48:40.153Z,30.28
2018-05-08T14:54:35.161Z,18.63
2018-05-08T15:00:30.201Z,15.91
2018-05-08T15:06:25.137Z,13.7
2018-05-08T15:12:20.152Z,13.96
2018-05-08T15:18:15.153Z,11.19
2018-05-08T15:24:10.188Z,9.66
2018-05-08T15:30:05.231Z,8.86
2018-05-08T15:36:00.174Z,6.64
2018-05-08T15:41:55.150Z,7.09
2018-05-08T15:47:50.179Z,6.24
2018-05-08T15:53:45.166Z,6.36
2018-05-08T15:59:40.183Z,6.18
2018-05-08T16:05:35.188Z,6.48
2018-05-08T16:11:30.268Z,7.01
2018-05-08T16:17:25.196Z,7.11
2018-05-08T16:23:20.164Z,7.03
2018-05-08T16:29:15.182Z,8.78
2018-05-08T16:35:10.270Z,12.12
2018-05-08T16:41:05.177Z,13.97
2018-05-08T16:47:00.197Z,16.06
2018-05-08T16:52:55.246Z,21.17
2018-05-08T16:58:50.211Z,19.28
2018-05-08T17:04:45.277Z,18.14
2018-05-08T17:10:40.174Z,13.87
2018-05-08T17:16:35.210Z,12.9
2018-05-08T17:22:30.251Z,8.58
2018-05-08T17:28:25.188Z,6.94
2018-05-08T17:34:20.242Z,6.3
2018-05-08T17:40:15.246Z,5.06
2018-05-08T17:46:10.239Z,5.22
2018-05-08T17:52:05.225Z,5.76
2018-05-08T17:58:00.241Z,5.91
2018-05-08T18:03:55.230Z,6.96
2018-05-08T18:09:50.225Z,6.5
2018-05-08T18:15:45.262Z,5.98
2018-05-08T18:21:40.204Z,6.45
2018-05-08T18:27:35.193Z,6.45
2018-05-08T18:33:30.251Z,6.19
2018-05-08T18:39:25.234Z,6.36
2018-05-08T18:45:20.223Z,6.13
2018-05-08T18:51:15.264Z,6.43
2018-05-08T18:57:10.277Z,6.82
2018-05-08T19:03:05.247Z,6.05
2018-05-08T19:09:00.233Z,6.3
2018-05-08T19:14:55.216Z,6.36
2018-05-08T19:20:50.252Z,5.72
2018-05-08T19:26:45.227Z,6.03
2018-05-08T19:32:40.248Z,5.53
2018-05-08T19:38:35.277Z,6.03
2018-05-08T19:44:30.247Z,5.95
2018-05-08T19:50:25.240Z,6.11
2018-05-08T19:56:20.290Z,5.78
2018-05-08T20:02:15.296Z,6.54
2018-05-08T20:08:10.273Z,5.61
2018-05-08T20:14:05.236Z,6.5
2018-05-08T20:20:00.248Z,5.84
2018-05-08T20:25:55.285Z,6.78
2018-05-08T20:31:50.250Z,6.72
2018-05-08T20:37:45.256Z,6.3
2018-05-08T20:43:40.268Z,6.53
2018-05-08T20:49:35.290Z,7.2
2018-05-08T20:55:30.306Z,6.95
2018-05-08T21:01:25.368Z,7.64
2018-05-08T21:07:20.284Z,6.62
2018-05-08T21:13:15.423Z,7.66
2018-05-08T21:19:10.259Z,6.26
2018-05-08T21:25:05.288Z,6.4
2018-05-08T21:31:00.305Z,6.3
2018-05-08T21:36:55.294Z,6.59
2018-05-08T21:42:50.299Z,7.13
2018-05-08T21:48:45.263Z,7.25
2018-05-08T21:54:40.291Z,7.67
2018-05-08T22:00:35.264Z,7.74
2018-05-08T22:06:30.309Z,7.5
2018-05-08T22:12:25.268Z,7.72
2018-05-08T22:18:20.304Z,7.69
2018-05-08T22:24:15.291Z,8.12
2018-05-08T22:30:10.321Z,8.61
2018-05-08T22:36:05.350Z,7.37
2018-05-08T22:42:00.295Z,7.77
2018-05-08T22:47:55.283Z,7.85
2018-05-08T22:53:50.320Z,8.18
2018-05-08T22:59:45.328Z,8.43
2018-05-08T23:05:40.319Z,8.32
2018-05-08T23:11:35.303Z,9.05
2018-05-08T23:17:30.337Z,8.31
2018-05-08T23:23:25.312Z,8.17
2018-05-08T23:29:20.311Z,8.52
2018-05-08T23:35:15.366Z,8.73
2018-05-08T23:41:10.329Z,8.67
2018-05-08T23:47:05.316Z,6.84
2018-05-08T23:53:00.338Z,7.44
2018-05-08T23:58:55.340Z,6.7
